CheckWX is a tool to help pilots better visualize weather data.  It is not intended as a substitute for an official pre-flight weather briefing.

11:12:55 UTC

DXXX METAR
Lomé-Tokoin Airport
Lomé, Togo
Current

1 hour ago

DXXX 151000Z 19004KT 130V240 9999 FEW010 FEW018CB 26/22 Q1013 RETS NOSIG
Observed
Oct-15 @ 10:00 UTC
Wind
  • 190° at 4 KTS
Visibility
10,000+ meters
Flight Rules
VFR
Cloud Levels
  • Few at 1,000' AGL
  • Few at 1,800' AGL
Temperature
26°C / 79°F
Dewpoint
22°C / 72°F
Humidity
79%
Altimeter
29.91" Hg
Pressure
1012.92 hPa
Previous

2 hours ago

DXXX 150900Z 22008KT 9999 TS FEW010 FEW018CB 25/22 Q1014 NOSIG
Observed
Oct-15 @ 09:00 UTC
Wind
  • 220° at 8 KTS
Visibility
10,000+ meters
Flight Rules
VFR
Conditions
Thunderstorm
Cloud Levels
  • Few at 1,000' AGL
  • Few at 1,800' AGL
Temperature
25°C / 77°F
Dewpoint
22°C / 72°F
Humidity
83%
Altimeter
29.94" Hg
Pressure
1013.92 hPa
Previous

3 hours ago

DXXX 150800Z 19008KT 160V220 9999 TS SCT010 FEW018CB BKN030 25/22 Q1014 TEMPO 4500 TSRA BKN010 FEW018CB BKN030
Observed
Oct-15 @ 08:00 UTC
Wind
  • 190° at 8 KTS
Visibility
10,000+ meters
Flight Rules
MVFR
Conditions
Thunderstorm
Cloud Levels
  • Scattered at 1,000' AGL
  • Few at 1,800' AGL
  • Broken at 3,000' AGL
Temperature
25°C / 77°F
Dewpoint
22°C / 72°F
Humidity
83%
Altimeter
29.94" Hg
Pressure
1013.92 hPa